Time;durP1;ratioP1;P1;durP2;ratioP2;P2;SDS_P1;SDS_P2;PMS_P1;PMS_P2;Temp;Humidity;BMP_temperature;BMP_pressure;BME280_temperature;BME280_humidity;BME280_pressure;Samples;Min_cycle;Max_cycle;Signal;HPM_P1;HPM_P2
2023/06/12 00:02:21;;;;;;;4.97;4.22;;;19.40;99.90;;;;;;5083816;28;20035;-73
2023/06/12 00:04:46;;;;;;;7.18;5.43;;;19.40;99.90;;;;;;5056105;28;20039;-70
2023/06/12 00:07:12;;;;;;;9.40;5.03;;;19.40;99.90;;;;;;5076284;28;20274;-70
2023/06/12 00:09:39;;;;;;;10.77;4.70;;;19.30;99.90;;;;;;5082266;28;20039;-71
2023/06/12 00:12:05;;;;;;;6.82;3.75;;;19.30;99.90;;;;;;5077661;28;20561;-70
2023/06/12 00:14:31;;;;;;;8.35;4.40;;;19.30;99.90;;;;;;5078885;28;20381;-73
2023/06/12 00:16:56;;;;;;;6.67;4.93;;;19.20;99.90;;;;;;5080531;28;20035;-70
2023/06/12 00:19:22;;;;;;;9.03;4.53;;;19.20;99.90;;;;;;5074248;28;20383;-69
2023/06/12 00:21:48;;;;;;;8.80;5.17;;;19.10;99.90;;;;;;5077380;28;20310;-72
2023/06/12 00:24:13;;;;;;;9.70;4.67;;;19.00;99.90;;;;;;5075970;28;20024;-70
2023/06/12 00:26:39;;;;;;;8.60;4.33;;;19.10;99.90;;;;;;5081112;28;20039;-73
2023/06/12 00:29:04;;;;;;;10.73;4.73;;;19.00;99.90;;;;;;5078793;28;20070;-72
2023/06/12 00:31:30;;;;;;;11.53;3.90;;;18.80;99.90;;;;;;5078355;28;20560;-74
2023/06/12 00:33:55;;;;;;;9.43;4.90;;;18.70;99.90;;;;;;5076214;28;20191;-73
2023/06/12 00:36:22;;;;;;;9.23;4.13;;;18.30;99.90;;;;;;5079307;28;20488;-70
2023/06/12 00:38:48;;;;;;;;;;;18.40;99.90;;;;;;5076235;28;20542;-72
2023/06/12 00:41:13;;;;;;;6.40;4.40;;;18.20;99.90;;;;;;5060920;28;19908;-70
2023/06/12 00:43:39;;;;;;;4.73;3.83;;;18.10;99.90;;;;;;5074445;28;20048;-70
2023/06/12 00:46:05;;;;;;;5.70;3.90;;;18.10;99.90;;;;;;5080937;28;20020;-72
2023/06/12 00:48:31;;;;;;;5.43;4.15;;;18.10;99.90;;;;;;5084439;28;20031;-69
2023/06/12 00:50:58;;;;;;;4.70;4.20;;;18.00;99.90;;;;;;5078985;28;20024;-70
2023/06/12 00:53:24;;;;;;;6.28;4.55;;;18.10;99.90;;;;;;5074511;28;20281;-69
2023/06/12 00:55:49;;;;;;;7.13;4.77;;;18.10;99.90;;;;;;5070776;28;20033;-70
2023/06/12 00:58:15;;;;;;;7.80;5.17;;;18.20;99.90;;;;;;5080299;28;20038;-69
2023/06/12 01:00:41;;;;;;;6.57;4.90;;;18.00;99.90;;;;;;5081636;28;20140;-71
2023/06/12 01:03:09;;;;;;;6.53;4.80;;;18.10;99.90;;;;;;5075056;28;20061;-70
2023/06/12 01:05:38;;;;;;;8.93;4.75;;;18.00;99.90;;;;;;5075909;28;20496;-71
2023/06/12 01:08:37;;;;;;;8.43;4.15;;;18.00;99.90;;;;;;5075051;28;20064;-70
2023/06/12 01:11:08;;;;;;;7.38;4.75;;;18.00;99.90;;;;;;5077867;28;20020;-70
2023/06/12 01:13:34;;;;;;;9.93;4.43;;;17.80;99.90;;;;;;5075933;28;20021;-70
2023/06/12 01:16:00;;;;;;;6.03;4.82;;;17.80;99.90;;;;;;5073555;28;20040;-70
2023/06/12 01:18:26;;;;;;;9.82;4.95;;;17.90;99.90;;;;;;5075423;28;20039;-69
2023/06/12 01:20:55;;;;;;;7.30;4.85;;;17.90;99.90;;;;;;5074495;28;20017;-70
2023/06/12 01:23:39;;;;;;;6.93;4.25;;;18.00;99.90;;;;;;5072417;28;20443;-70
2023/06/12 01:26:33;;;;;;;11.20;4.32;;;17.90;99.90;;;;;;5080912;28;20024;-69
2023/06/12 01:29:35;;;;;;;8.23;4.47;;;18.10;99.90;;;;;;5076559;28;20402;-69
2023/06/12 01:32:05;;;;;;;6.35;4.20;;;18.10;99.90;;;;;;5078480;28;20046;-73
2023/06/12 01:34:56;;;;;;;9.70;4.35;;;18.20;99.90;;;;;;5077895;28;20115;-71
2023/06/12 01:38:08;;;;;;;6.10;4.82;;;18.20;99.90;;;;;;5062115;28;20048;-74
2023/06/12 01:40:37;;;;;;;9.52;3.95;;;18.10;99.90;;;;;;4960415;28;20022;-70
2023/06/12 01:43:02;;;;;;;8.20;4.63;;;18.00;99.90;;;;;;4975461;28;20029;-70
2023/06/12 01:45:28;;;;;;;5.60;4.53;;;17.90;99.90;;;;;;5032284;28;20522;-73
2023/06/12 01:47:53;;;;;;;13.17;4.27;;;17.90;99.90;;;;;;5075620;28;20184;-70
2023/06/12 01:50:19;;;;;;;5.40;4.13;;;18.10;99.90;;;;;;5075618;28;20025;-70
2023/06/12 01:52:45;;;;;;;5.53;4.80;;;17.70;99.90;;;;;;5079280;28;20028;-72
2023/06/12 01:55:13;;;;;;;8.80;5.63;;;17.40;99.90;;;;;;5081903;28;20483;-69
2023/06/12 01:57:40;;;;;;;6.80;4.72;;;17.40;99.90;;;;;;5084067;28;20032;-72
2023/06/12 02:00:08;;;;;;;7.50;4.72;;;17.30;99.90;;;;;;5071436;28;20035;-70
2023/06/12 02:02:36;;;;;;;6.18;5.07;;;17.30;99.90;;;;;;5074019;28;20699;-70
2023/06/12 02:05:01;;;;;;;7.65;4.40;;;17.30;99.90;;;;;;5073423;28;20502;-72
2023/06/12 02:07:27;;;;;;;10.03;4.90;;;17.20;99.90;;;;;;5077759;28;20032;-70
2023/06/12 02:09:53;;;;;;;10.60;5.37;;;17.20;99.90;;;;;;5075405;28;20021;-73
2023/06/12 02:12:18;;;;;;;6.30;4.90;;;17.30;99.90;;;;;;5078229;28;20111;-71
2023/06/12 02:14:44;;;;;;;8.00;5.20;;;17.20;99.90;;;;;;5073602;28;20039;-70
2023/06/12 02:17:13;;;;;;;5.93;4.70;;;17.40;99.90;;;;;;5080618;28;20031;-72
2023/06/12 02:19:39;;;;;;;8.18;5.05;;;17.60;99.90;;;;;;5077599;28;20033;-72
2023/06/12 02:22:04;;;;;;;7.67;5.27;;;17.50;99.90;;;;;;5073701;28;20028;-72
2023/06/12 02:24:32;;;;;;;7.70;5.10;;;17.30;99.90;;;;;;5081269;28;20028;-70
2023/06/12 02:26:57;;;;;;;8.45;5.00;;;17.20;99.90;;;;;;5078320;28;20484;-70
2023/06/12 02:29:23;;;;;;;8.70;4.60;;;17.30;99.90;;;;;;5078073;28;20044;-69
2023/06/12 02:31:49;;;;;;;6.43;5.15;;;17.30;99.90;;;;;;5084218;28;20459;-70
2023/06/12 02:34:15;;;;;;;6.60;4.47;;;17.50;99.90;;;;;;5080377;28;20453;-70
2023/06/12 02:36:46;;;;;;;8.80;5.27;;;17.60;99.90;;;;;;5081884;28;20456;-73
2023/06/12 02:39:15;;;;;;;6.57;4.45;;;17.20;99.90;;;;;;5080505;28;20036;-72
2023/06/12 02:41:42;;;;;;;6.82;5.13;;;17.00;99.90;;;;;;5081819;28;20058;-70
2023/06/12 02:44:07;;;;;;;6.78;4.93;;;17.10;99.90;;;;;;5083916;28;20556;-70
2023/06/12 02:46:50;;;;;;;7.37;4.53;;;17.10;99.90;;;;;;5081288;28;20028;-70
2023/06/12 02:49:17;;;;;;;9.40;5.50;;;16.90;99.90;;;;;;5080762;28;20122;-71
2023/06/12 02:51:42;;;;;;;8.00;5.20;;;17.00;99.90;;;;;;5083905;28;20099;-70
2023/06/12 02:54:08;;;;;;;7.10;5.17;;;16.90;99.90;;;;;;5083350;28;20123;-71
2023/06/12 02:56:33;;;;;;;8.07;5.53;;;17.00;99.90;;;;;;5076278;28;20040;-70
2023/06/12 02:58:59;;;;;;;7.83;5.33;;;16.90;99.90;;;;;;5087180;28;20028;-69
2023/06/12 03:01:25;;;;;;;6.50;4.85;;;17.00;99.90;;;;;;5085857;28;20044;-71
2023/06/12 03:03:52;;;;;;;7.40;5.13;;;17.00;99.90;;;;;;5078634;28;20400;-69
2023/06/12 03:06:18;;;;;;;10.60;5.07;;;17.00;99.90;;;;;;5083811;28;20036;-70
2023/06/12 03:08:44;;;;;;;6.10;4.93;;;17.10;99.90;;;;;;5085172;28;20040;-70
2023/06/12 03:11:10;;;;;;;6.68;4.97;;;17.20;99.90;;;;;;5080004;28;20501;-74
2023/06/12 03:13:35;;;;;;;16.63;4.97;;;17.20;99.90;;;;;;5082447;28;20096;-72
2023/06/12 03:16:02;;;;;;;6.83;5.10;;;17.20;99.90;;;;;;5080032;28;20028;-70
2023/06/12 03:18:27;;;;;;;6.15;5.20;;;17.30;99.90;;;;;;5079815;28;20054;-73
2023/06/12 03:20:53;;;;;;;8.50;4.60;;;17.40;99.90;;;;;;5083845;28;20060;-72
2023/06/12 03:23:19;;;;;;;6.87;5.00;;;17.40;99.90;;;;;;5081600;28;20128;-69
2023/06/12 03:25:44;;;;;;;18.53;5.40;;;17.30;99.90;;;;;;5081557;28;20039;-71
2023/06/12 03:28:10;;;;;;;10.80;4.80;;;17.30;99.90;;;;;;5085391;28;20285;-73
2023/06/12 03:30:36;;;;;;;11.35;6.20;;;17.20;99.90;;;;;;5078201;28;20066;-71
2023/06/12 03:33:02;;;;;;;8.50;6.17;;;17.10;99.90;;;;;;5075763;28;20064;-70
2023/06/12 03:35:29;;;;;;;9.80;5.40;;;17.00;99.90;;;;;;5081099;28;20031;-71
2023/06/12 03:37:55;;;;;;;9.00;6.10;;;17.00;99.90;;;;;;5081121;28;20032;-71
2023/06/12 03:40:20;;;;;;;9.00;4.97;;;16.90;99.90;;;;;;5077867;28;20032;-73
2023/06/12 03:42:46;;;;;;;13.00;5.43;;;16.80;99.90;;;;;;5054297;28;20490;-74
2023/06/12 03:45:11;;;;;;;8.23;5.40;;;16.70;99.90;;;;;;5080023;28;20060;-73
2023/06/12 03:47:37;;;;;;;9.97;5.80;;;16.50;99.90;;;;;;5081060;28;20476;-71
2023/06/12 03:50:03;;;;;;;10.20;5.53;;;16.60;99.90;;;;;;5079575;28;20070;-72
2023/06/12 03:52:28;;;;;;;13.90;6.27;;;16.50;99.90;;;;;;5079194;28;20575;-70
2023/06/12 03:54:54;;;;;;;14.03;5.90;;;16.50;99.90;;;;;;5075601;28;20302;-71
2023/06/12 03:57:20;;;;;;;16.73;5.40;;;16.50;99.90;;;;;;5081621;28;20081;-70
2023/06/12 03:59:46;;;;;;;12.27;5.45;;;16.50;99.90;;;;;;5078630;28;20489;-71
2023/06/12 04:02:12;;;;;;;9.77;6.10;;;16.60;99.90;;;;;;5077086;28;20032;-70
2023/06/12 04:04:37;;;;;;;8.17;5.70;;;16.50;99.90;;;;;;5085419;28;20024;-70
2023/06/12 04:07:03;;;;;;;6.97;5.30;;;16.40;99.90;;;;;;5075726;28;20024;-70
2023/06/12 04:09:29;;;;;;;9.93;5.25;;;16.60;99.90;;;;;;5082231;28;20593;-70
2023/06/12 04:11:54;;;;;;;8.93;5.60;;;16.80;99.90;;;;;;5083249;28;20984;-70
2023/06/12 04:14:20;;;;;;;12.90;6.93;;;16.90;99.90;;;;;;5082463;28;20432;-73
2023/06/12 04:16:46;;;;;;;10.02;6.10;;;17.10;99.90;;;;;;5080584;28;20172;-73
2023/06/12 04:19:12;;;;;;;12.10;6.10;;;16.90;99.90;;;;;;5080442;28;20040;-71
2023/06/12 04:21:38;;;;;;;8.98;5.97;;;16.90;99.90;;;;;;5084367;28;20069;-71
2023/06/12 04:24:05;;;;;;;9.27;5.83;;;16.80;99.90;;;;;;5083582;28;20039;-72
2023/06/12 04:26:31;;;;;;;9.73;5.97;;;17.10;99.90;;;;;;5079440;28;20049;-71
2023/06/12 04:28:57;;;;;;;10.70;6.25;;;17.20;99.90;;;;;;5073805;28;20447;-71
2023/06/12 04:31:26;;;;;;;9.18;5.75;;;17.10;99.90;;;;;;5076298;28;20459;-70
2023/06/12 04:33:52;;;;;;;11.80;5.65;;;17.00;99.90;;;;;;5081492;28;20467;-71
2023/06/12 04:36:18;;;;;;;9.68;5.90;;;16.80;99.90;;;;;;5078324;28;20024;-71
2023/06/12 04:38:45;;;;;;;11.73;6.53;;;16.90;99.90;;;;;;5072281;28;20028;-72
2023/06/12 04:41:11;;;;;;;7.88;5.05;;;16.90;99.90;;;;;;5082646;28;20806;-70
2023/06/12 04:43:36;;;;;;;8.73;5.22;;;17.20;99.90;;;;;;5082405;28;20115;-72
2023/06/12 04:46:02;;;;;;;13.87;5.30;;;17.40;99.90;;;;;;5075143;28;20127;-74
2023/06/12 04:48:28;;;;;;;15.15;6.47;;;17.30;99.90;;;;;;5085909;28;20265;-73
2023/06/12 04:50:58;;;;;;;7.25;5.80;;;17.20;99.90;;;;;;5077817;28;20039;-72
2023/06/12 04:53:29;;;;;;;14.93;5.65;;;17.20;99.90;;;;;;5077563;28;20028;-72
2023/06/12 04:55:58;;;;;;;11.73;6.35;;;17.20;99.90;;;;;;5075334;28;20040;-71
2023/06/12 04:58:24;;;;;;;10.23;5.78;;;17.10;99.90;;;;;;5075869;28;20634;-69
2023/06/12 05:00:50;;;;;;;13.93;6.80;;;17.10;99.90;;;;;;5073386;28;21146;-70
2023/06/12 05:03:17;;;;;;;12.73;6.57;;;17.30;99.90;;;;;;5079555;28;20036;-70
2023/06/12 05:05:44;;;;;;;9.80;5.70;;;17.20;99.90;;;;;;5075641;28;20032;-70
2023/06/12 05:08:11;;;;;;;12.60;5.88;;;17.30;99.90;;;;;;5057591;28;20043;-72
2023/06/12 05:10:37;;;;;;;10.52;5.97;;;17.60;99.90;;;;;;5080399;28;20039;-70
2023/06/12 05:13:03;;;;;;;13.10;6.20;;;17.40;99.90;;;;;;5074883;28;20028;-71
2023/06/12 05:15:29;;;;;;;20.73;6.50;;;17.50;99.90;;;;;;5074781;28;20036;-70
2023/06/12 05:17:55;;;;;;;9.60;5.70;;;17.60;99.90;;;;;;5073060;28;20510;-69
2023/06/12 05:20:21;;;;;;;12.00;5.80;;;17.90;99.90;;;;;;5074559;28;20076;-69
2023/06/12 05:22:47;;;;;;;9.52;5.72;;;18.30;99.90;;;;;;5055623;28;20120;-70
2023/06/12 05:25:13;;;;;;;10.43;6.25;;;18.30;99.90;;;;;;5076826;28;20447;-69
2023/06/12 05:27:40;;;;;;;12.57;6.20;;;18.20;99.90;;;;;;5073867;28;20460;-70
2023/06/12 05:30:06;;;;;;;8.63;6.15;;;18.20;99.90;;;;;;5074724;28;20028;-70
2023/06/12 05:32:32;;;;;;;7.85;5.45;;;18.20;99.90;;;;;;5071738;28;20059;-70
2023/06/12 05:34:58;;;;;;;7.40;5.82;;;18.40;99.90;;;;;;5076584;28;20033;-71
2023/06/12 05:37:23;;;;;;;10.23;5.50;;;18.50;99.90;;;;;;5075012;28;20036;-70
2023/06/12 05:39:49;;;;;;;9.17;5.90;;;18.70;99.90;;;;;;5079055;28;20089;-70
2023/06/12 05:42:15;;;;;;;9.57;5.63;;;18.90;99.90;;;;;;5073955;28;20056;-70
2023/06/12 05:44:42;;;;;;;9.20;5.50;;;19.50;99.90;;;;;;5076870;28;20032;-70
2023/06/12 05:47:08;;;;;;;7.72;5.75;;;20.50;99.90;;;;;;5073079;28;20077;-69
2023/06/12 05:49:34;;;;;;;13.93;5.65;;;21.60;99.90;;;;;;5072366;28;20036;-69
2023/06/12 05:52:02;;;;;;;10.57;5.38;;;22.00;99.90;;;;;;5078688;28;20043;-68
2023/06/12 05:54:28;;;;;;;11.52;5.60;;;22.50;99.90;;;;;;5074944;28;20034;-68
2023/06/12 05:56:53;;;;;;;6.32;4.60;;;23.40;99.90;;;;;;5070343;28;20044;-71
2023/06/12 05:59:19;;;;;;;12.53;5.60;;;24.40;99.90;;;;;;5075887;28;20056;-68
2023/06/12 06:01:45;;;;;;;11.68;5.22;;;24.90;99.90;;;;;;5075467;28;20097;-70
2023/06/12 06:04:11;;;;;;;5.53;5.03;;;25.50;99.90;;;;;;5075628;28;20120;-70
2023/06/12 06:06:40;;;;;;;8.38;5.25;;;26.20;99.90;;;;;;5078038;28;20059;-74
2023/06/12 06:09:06;;;;;;;7.38;5.18;;;26.40;97.70;;;;;;5074929;28;20040;-76
2023/06/12 06:11:32;;;;;;;7.57;5.50;;;26.90;97.40;;;;;;5080322;28;20463;-74
2023/06/12 06:13:58;;;;;;;7.45;5.75;;;27.50;96.40;;;;;;5081047;28;20349;-73
2023/06/12 06:16:24;;;;;;;12.52;6.60;;;28.00;94.50;;;;;;5080733;28;20040;-70
2023/06/12 06:18:50;;;;;;;7.38;6.20;;;28.00;94.60;;;;;;5079069;28;20024;-75
2023/06/12 06:21:16;;;;;;;14.00;6.45;;;28.50;92.90;;;;;;5077880;28;20047;-70
2023/06/12 06:23:41;;;;;;;11.02;6.40;;;27.70;93.70;;;;;;5081317;28;20102;-70
2023/06/12 06:26:09;;;;;;;10.25;7.40;;;28.40;93.40;;;;;;5075959;28;20032;-72
2023/06/12 06:28:35;;;;;;;10.98;8.32;;;28.70;93.00;;;;;;5078572;28;20036;-75
2023/06/12 06:31:00;;;;;;;11.02;7.28;;;28.30;92.40;;;;;;5076818;28;20024;-71
2023/06/12 06:33:26;;;;;;;10.30;7.07;;;27.60;94.90;;;;;;5073441;28;20029;-72
2023/06/12 06:35:52;;;;;;;14.65;8.52;;;27.70;95.50;;;;;;5080250;28;20143;-73
2023/06/12 06:38:21;;;;;;;13.98;7.55;;;28.40;93.90;;;;;;5080279;28;20060;-72
2023/06/12 06:40:47;;;;;;;13.77;7.28;;;28.40;92.30;;;;;;5083090;28;20134;-73
2023/06/12 06:43:13;;;;;;;12.77;7.10;;;27.40;96.00;;;;;;5073625;28;20095;-73
2023/06/12 06:45:39;;;;;;;10.57;8.15;;;26.60;98.10;;;;;;5080727;28;20118;-75
2023/06/12 06:48:05;;;;;;;12.45;8.10;;;25.80;99.90;;;;;;5073649;28;20104;-73
2023/06/12 06:50:31;;;;;;;14.63;8.57;;;25.30;99.90;;;;;;5076847;28;20058;-74
2023/06/12 06:52:56;;;;;;;14.75;9.40;;;25.90;99.90;;;;;;5073896;28;20442;-71
2023/06/12 06:55:22;;;;;;;12.75;8.52;;;28.10;97.30;;;;;;5077955;28;20097;-71
2023/06/12 06:57:50;;;;;;;15.18;9.30;;;29.90;90.60;;;;;;5075976;28;20507;-74
2023/06/12 07:00:16;;;;;;;23.98;9.45;;;31.20;82.30;;;;;;5082359;28;20020;-73
2023/06/12 07:02:45;;;;;;;11.82;8.40;;;30.30;84.50;;;;;;5078503;28;20039;-73
2023/06/12 07:05:11;;;;;;;12.95;8.27;;;28.90;91.90;;;;;;5080321;28;20112;-73
2023/06/12 07:07:38;;;;;;;15.25;8.38;;;28.00;94.70;;;;;;5077529;28;20107;-72
2023/06/12 07:10:05;;;;;;;10.98;9.23;;;27.00;98.30;;;;;;5076960;28;20028;-73
2023/06/12 07:12:30;;;;;;;13.75;9.00;;;26.50;99.40;;;;;;5082632;28;20404;-71
2023/06/12 07:14:56;;;;;;;15.82;9.57;;;25.60;99.90;;;;;;5078220;28;20036;-72
2023/06/12 07:17:21;;;;;;;13.63;9.50;;;25.30;99.90;;;;;;5086084;28;20487;-74
2023/06/12 07:19:47;;;;;;;15.02;11.70;;;25.30;99.90;;;;;;5075234;28;20027;-71
2023/06/12 07:22:12;;;;;;;13.95;11.27;;;25.20;99.90;;;;;;5077653;28;20514;-71
2023/06/12 07:24:38;;;;;;;17.60;12.05;;;25.10;99.90;;;;;;5081669;28;20036;-71
2023/06/12 07:27:04;;;;;;;19.63;12.43;;;24.90;99.90;;;;;;5075571;28;22204;-71
2023/06/12 07:29:30;;;;;;;;;;;24.90;99.90;;;;;;5086158;28;20058;-72
2023/06/12 07:31:56;;;;;;;22.00;12.98;;;24.70;99.90;;;;;;5085452;28;19943;-72
2023/06/12 07:34:21;;;;;;;17.92;11.52;;;25.00;99.90;;;;;;5075079;28;20020;-73
2023/06/12 07:36:47;;;;;;;18.17;12.55;;;24.90;99.90;;;;;;5077505;28;20048;-73
2023/06/12 07:39:12;;;;;;;19.48;12.38;;;24.70;99.90;;;;;;5083453;28;20020;-73
2023/06/12 07:41:40;;;;;;;19.67;11.93;;;25.00;99.90;;;;;;5073958;28;20877;-73
2023/06/12 07:44:06;;;;;;;15.85;13.02;;;25.00;99.90;;;;;;5075803;28;20024;-72
2023/06/12 07:46:32;;;;;;;15.38;12.60;;;24.60;99.90;;;;;;5073771;28;20031;-72
2023/06/12 07:48:57;;;;;;;23.52;13.02;;;24.30;99.90;;;;;;5056994;28;20077;-73
2023/06/12 07:51:23;;;;;;;22.15;11.68;;;24.80;99.90;;;;;;5079370;28;20540;-73
2023/06/12 07:53:49;;;;;;;13.47;9.83;;;24.50;99.90;;;;;;5077133;28;20459;-73
2023/06/12 07:59:37;;;;;;;19.98;14.05;;;24.50;99.90;;;;;;5077400;28;20051;-72
2023/06/12 08:02:03;;;;;;;17.17;13.52;;;24.40;99.90;;;;;;5077846;28;20492;-71
2023/06/12 08:04:29;;;;;;;18.30;12.63;;;24.10;99.90;;;;;;5078443;28;20032;-72
2023/06/12 08:06:55;;;;;;;17.73;12.02;;;23.90;99.90;;;;;;5081199;28;20031;-70
2023/06/12 08:09:20;;;;;;;19.63;13.93;;;24.10;99.90;;;;;;5077255;28;20440;-72
2023/06/12 08:11:46;;;;;;;15.15;11.02;;;24.30;99.90;;;;;;5072518;28;20024;-70
2023/06/12 08:14:12;;;;;;;24.27;12.63;;;24.80;99.90;;;;;;5073245;28;21112;-72
2023/06/12 08:16:38;;;;;;;19.65;11.30;;;25.40;99.90;;;;;;5074783;28;20059;-71
2023/06/12 08:19:04;;;;;;;20.10;11.63;;;27.50;98.90;;;;;;5073778;28;20033;-71
2023/06/12 08:21:30;;;;;;;14.00;10.85;;;27.90;96.00;;;;;;5076547;28;20032;-65
2023/06/12 08:23:55;;;;;;;16.67;11.32;;;27.00;97.30;;;;;;5077589;28;20028;-67
2023/06/12 08:26:24;;;;;;;14.45;10.68;;;27.40;98.60;;;;;;5078992;28;20028;-66
2023/06/12 08:28:50;;;;;;;14.80;10.98;;;28.90;94.40;;;;;;5054479;28;20483;-65
2023/06/12 08:31:16;;;;;;;18.30;10.57;;;28.80;94.60;;;;;;5077411;28;20096;-66
2023/06/12 08:33:42;;;;;;;14.77;11.63;;;27.80;96.20;;;;;;5074335;28;20534;-65
2023/06/12 08:36:07;;;;;;;11.70;9.23;;;27.20;98.70;;;;;;5075867;28;20040;-65
2023/06/12 08:38:33;;;;;;;13.25;9.27;;;27.50;98.20;;;;;;5077161;28;20024;-66
2023/06/12 08:41:02;;;;;;;15.65;10.32;;;29.30;94.80;;;;;;5077390;28;20552;-66
2023/06/12 08:43:30;;;;;;;83.43;11.10;;;29.70;90.40;;;;;;5078265;28;20036;-66
2023/06/12 08:45:57;;;;;;;27.70;9.65;;;28.30;93.60;;;;;;5072951;28;20538;-69
2023/06/12 08:48:26;;;;;;;31.00;10.32;;;27.20;96.90;;;;;;5072073;28;20103;-67
2023/06/12 08:50:52;;;;;;;12.88;8.93;;;26.40;99.90;;;;;;5073531;28;20055;-66
2023/06/12 08:53:18;;;;;;;13.20;8.90;;;26.40;98.90;;;;;;5072117;28;20037;-69
2023/06/12 08:55:45;;;;;;;11.95;8.15;;;28.00;98.10;;;;;;5074552;28;20016;-69
2023/06/12 08:58:11;;;;;;;14.80;8.82;;;30.10;89.90;;;;;;5073104;28;20040;-65
2023/06/12 09:00:37;;;;;;;26.85;7.72;;;33.40;72.40;;;;;;5073112;28;20025;-66
2023/06/12 09:03:06;;;;;;;;;;;36.00;64.80;;;;;;5073007;28;20057;-67
2023/06/12 09:05:33;;;;;;;9.57;7.10;;;36.50;61.40;;;;;;5076220;28;19912;-65
2023/06/12 09:08:00;;;;;;;10.27;8.05;;;37.40;61.10;;;;;;5077153;28;20520;-70
2023/06/12 09:10:26;;;;;;;14.70;8.57;;;38.70;59.20;;;;;;5077922;28;20086;-69
2023/06/12 09:12:55;;;;;;;;;;;37.90;59.00;;;;;;5078349;28;20451;-67
2023/06/12 09:15:22;;;;;;;11.52;8.30;;;35.80;61.00;;;;;;5080795;28;19927;-67
2023/06/12 09:17:49;;;;;;;13.25;9.95;;;37.50;59.70;;;;;;5076940;28;20770;-68
2023/06/12 09:20:33;;;;;;;14.95;8.95;;;38.50;57.70;;;;;;5075857;28;20048;-67
2023/06/12 09:23:00;;;;;;;15.35;9.35;;;38.80;58.10;;;;;;5078558;28;20170;-66
2023/06/12 09:25:43;;;;;;;10.45;7.25;;;39.50;56.60;;;;;;5069448;28;20047;-67
2023/06/12 09:28:10;;;;;;;15.00;7.70;;;40.00;56.50;;;;;;5080252;28;20028;-67
2023/06/12 09:30:40;;;;;;;9.45;6.80;;;40.00;55.80;;;;;;5078574;28;20024;-66
2023/06/12 09:33:06;;;;;;;13.85;6.45;;;39.90;56.90;;;;;;5075052;28;20617;-66
2023/06/12 09:35:32;;;;;;;11.70;6.15;;;39.90;56.10;;;;;;5076154;28;20024;-71
2023/06/12 09:37:58;;;;;;;7.13;6.28;;;37.10;58.90;;;;;;5079141;28;20040;-66
2023/06/12 09:40:24;;;;;;;8.43;5.82;;;32.60;70.40;;;;;;5074064;28;20047;-65
2023/06/12 09:42:50;;;;;;;10.23;6.28;;;31.20;79.60;;;;;;5076243;28;20523;-68
2023/06/12 09:45:17;;;;;;;14.32;6.90;;;33.50;72.20;;;;;;5075915;28;20060;-70
2023/06/12 09:47:48;;;;;;;8.50;7.70;;;37.70;62.80;;;;;;5080043;28;20028;-72
2023/06/12 09:50:15;;;;;;;10.82;7.47;;;38.90;59.30;;;;;;5072148;28;20116;-69
2023/06/12 09:52:43;;;;;;;10.10;6.65;;;39.00;56.60;;;;;;5075540;28;20028;-71
2023/06/12 09:55:11;;;;;;;6.55;5.88;;;40.50;57.40;;;;;;5074586;28;20048;-69
2023/06/12 09:57:38;;;;;;;8.57;5.88;;;38.80;58.60;;;;;;5078601;28;20032;-67
2023/06/12 10:00:11;;;;;;;7.40;4.65;;;39.40;57.10;;;;;;5073206;28;20024;-67
2023/06/12 10:02:41;;;;;;;5.80;5.18;;;39.40;57.10;;;;;;5080515;28;20058;-71
2023/06/12 10:05:16;;;;;;;6.43;5.13;;;38.40;57.10;;;;;;5074947;28;20062;-70
2023/06/12 10:07:47;;;;;;;6.05;4.80;;;39.20;57.50;;;;;;5074353;28;20020;-67
2023/06/12 10:10:14;;;;;;;7.28;4.70;;;39.20;56.70;;;;;;5080914;28;20036;-66
2023/06/12 10:12:42;;;;;;;5.80;4.57;;;40.90;55.50;;;;;;5074372;28;20551;-71
2023/06/12 10:15:08;;;;;;;6.88;4.57;;;41.90;54.40;;;;;;5075168;28;20043;-72
2023/06/12 10:17:35;;;;;;;7.38;5.28;;;41.00;54.20;;;;;;5076455;28;20039;-73
2023/06/12 10:20:03;;;;;;;15.93;5.32;;;39.40;55.40;;;;;;5074814;28;20043;-71
2023/06/12 10:22:29;;;;;;;8.40;4.80;;;36.20;61.40;;;;;;5075960;28;20042;-68
2023/06/12 10:24:57;;;;;;;5.82;4.70;;;34.10;64.10;;;;;;5072860;28;20040;-67
2023/06/12 10:27:23;;;;;;;4.90;4.50;;;32.60;69.10;;;;;;5060272;28;20031;-66
2023/06/12 10:29:59;;;;;;;6.05;5.03;;;31.90;76.30;;;;;;5080099;28;20082;-68
2023/06/12 10:32:32;;;;;;;8.93;5.15;;;31.30;80.70;;;;;;5075525;28;20028;-68
2023/06/12 10:34:59;;;;;;;18.88;6.72;;;30.90;79.70;;;;;;5074248;28;20039;-70
2023/06/12 10:37:30;;;;;;;16.42;6.63;;;30.40;84.50;;;;;;5071974;28;20496;-68
2023/06/12 10:40:15;;;;;;;44.92;13.63;;;30.10;84.50;;;;;;5075111;28;20129;-67
2023/06/12 10:42:41;;;;;;;46.13;15.85;;;30.10;91.10;;;;;;5076023;28;20982;-68
2023/06/12 10:45:17;;;;;;;;;;;30.00;88.00;;;;;;5072973;28;20029;-67
2023/06/12 10:47:57;;;;;;;32.40;10.90;;;29.80;90.60;;;;;;5075039;28;19965;-67
2023/06/12 10:50:25;;;;;;;12.80;5.53;;;29.80;85.50;;;;;;5075477;28;20137;-68
2023/06/12 10:52:55;;;;;;;73.63;16.92;;;29.40;88.00;;;;;;5073932;28;20166;-72
2023/06/12 10:55:23;;;;;;;52.92;12.02;;;29.30;91.90;;;;;;5077222;28;20106;-67
2023/06/12 10:57:52;;;;;;;15.98;7.18;;;29.10;91.80;;;;;;5063821;28;20067;-67
2023/06/12 11:00:19;;;;;;;9.25;4.70;;;28.80;91.30;;;;;;5079704;28;20045;-67
2023/06/12 11:02:46;;;;;;;33.67;11.23;;;29.20;93.60;;;;;;5079028;28;20024;-75
2023/06/12 11:05:16;;;;;;;8.52;5.00;;;29.20;92.10;;;;;;5078376;28;20085;-69
2023/06/12 11:07:42;;;;;;;14.65;6.55;;;29.00;90.90;;;;;;5081433;28;20484;-66
2023/06/12 11:10:11;;;;;;;18.17;7.57;;;29.10;92.70;;;;;;5061065;28;20036;-67
2023/06/12 11:12:48;;;;;;;13.60;6.78;;;29.10;88.50;;;;;;5078959;28;20036;-68
2023/06/12 11:15:15;;;;;;;11.57;4.95;;;29.00;91.10;;;;;;5080893;28;20147;-69
2023/06/12 11:17:42;;;;;;;7.95;4.68;;;29.00;90.70;;;;;;5077140;28;20036;-67
2023/06/12 11:20:09;;;;;;;6.20;4.63;;;29.00;92.10;;;;;;5078220;28;20035;-70
2023/06/12 11:22:35;;;;;;;10.15;5.05;;;29.00;90.80;;;;;;5078393;28;20043;-68
2023/06/12 11:25:01;;;;;;;10.30;5.22;;;29.00;91.50;;;;;;5073716;28;20030;-65
2023/06/12 11:27:27;;;;;;;7.78;5.43;;;28.90;92.30;;;;;;5078689;28;20028;-65
2023/06/12 11:29:53;;;;;;;5.90;4.07;;;29.10;90.80;;;;;;5073716;28;20031;-66
2023/06/12 11:32:20;;;;;;;5.25;4.45;;;29.20;91.30;;;;;;5083033;28;20035;-67
2023/06/12 11:34:46;;;;;;;5.53;4.53;;;29.20;91.80;;;;;;5079047;28;20032;-71
2023/06/12 11:37:19;;;;;;;5.10;4.60;;;28.90;88.20;;;;;;5079253;28;20051;-69
2023/06/12 11:39:46;;;;;;;7.30;5.10;;;28.70;90.90;;;;;;5081057;28;20032;-71
2023/06/12 11:42:12;;;;;;;5.35;4.78;;;28.70;91.80;;;;;;5081427;28;20031;-66
2023/06/12 11:44:41;;;;;;;5.80;4.80;;;28.70;93.30;;;;;;5074135;28;20028;-69
2023/06/12 11:47:07;;;;;;;6.65;4.88;;;29.10;95.70;;;;;;5079788;28;20155;-66
2023/06/12 11:49:37;;;;;;;5.50;4.65;;;29.30;94.40;;;;;;5075554;28;20070;-66
2023/06/12 11:52:04;;;;;;;7.43;5.35;;;29.00;92.60;;;;;;5079387;28;20067;-65
2023/06/12 11:54:31;;;;;;;5.72;4.20;;;29.20;94.00;;;;;;5077740;28;20024;-67
2023/06/12 11:57:02;;;;;;;5.50;4.30;;;29.20;93.80;;;;;;5077585;28;20036;-66
2023/06/12 11:59:37;;;;;;;11.05;4.80;;;29.30;91.50;;;;;;5079400;28;20027;-68
2023/06/12 12:02:02;;;;;;;9.63;4.45;;;29.30;92.20;;;;;;5078549;28;20047;-65
2023/06/12 12:04:30;;;;;;;5.45;4.93;;;29.00;90.60;;;;;;5080082;28;20023;-67
2023/06/12 12:06:57;;;;;;;8.68;4.85;;;28.90;93.60;;;;;;5080036;28;20032;-72
2023/06/12 12:09:26;;;;;;;7.00;4.65;;;29.00;93.10;;;;;;5079566;28;20395;-66
2023/06/12 12:11:52;;;;;;;5.78;4.80;;;29.20;94.20;;;;;;5075763;28;20017;-65
2023/06/12 12:14:18;;;;;;;5.10;4.57;;;29.20;93.30;;;;;;5082976;28;20090;-65
2023/06/12 12:16:44;;;;;;;7.50;4.82;;;29.30;92.90;;;;;;5076487;28;20101;-67
2023/06/12 12:19:26;;;;;;;7.65;5.00;;;29.20;93.10;;;;;;5066195;28;20461;-72
2023/06/12 12:21:52;;;;;;;7.82;4.53;;;29.20;90.30;;;;;;5081665;28;20028;-74
2023/06/12 12:24:18;;;;;;;8.13;5.28;;;29.50;91.60;;;;;;5076426;28;20488;-70
2023/06/12 12:26:49;;;;;;;7.38;5.28;;;29.80;90.60;;;;;;5074073;28;20021;-71
2023/06/12 12:29:14;;;;;;;7.05;4.65;;;30.00;86.50;;;;;;5082893;28;20089;-79
2023/06/12 12:31:40;;;;;;;7.22;4.90;;;30.00;86.80;;;;;;5074814;28;20036;-77
2023/06/12 12:34:08;;;;;;;7.35;4.72;;;30.10;91.10;;;;;;5073243;28;21096;-70
2023/06/12 12:36:34;;;;;;;7.32;4.38;;;29.80;93.10;;;;;;5074997;28;20090;-78
2023/06/12 12:39:00;;;;;;;;;;;30.10;85.60;;;;;;5079831;28;20024;-77
2023/06/12 12:41:26;;;;;;;4.82;4.20;;;30.10;92.10;;;;;;5072217;28;19922;-76
2023/06/12 12:43:52;;;;;;;;;;;30.10;91.10;;;;;;5075386;28;20558;-72
2023/06/12 12:46:18;;;;;;;4.70;4.25;;;30.10;92.30;;;;;;5075145;28;19912;-75
2023/06/12 12:48:43;;;;;;;5.75;4.63;;;30.20;91.40;;;;;;5076563;28;20028;-76